createdAt,value
2018-02-14T00:02:02.124Z,4.13
2018-02-14T00:04:30.344Z,3.73
2018-02-14T00:06:57.825Z,4.03
2018-02-14T00:09:25.415Z,3.80
2018-02-14T00:11:53.744Z,3.63
2018-02-14T00:14:21.208Z,3.60
2018-02-14T00:16:48.678Z,3.70
2018-02-14T00:19:16.155Z,3.27
2018-02-14T00:21:43.612Z,4.27
2018-02-14T00:24:11.845Z,3.37
2018-02-14T00:26:39.311Z,3.40
2018-02-14T00:29:06.904Z,3.97
2018-02-14T00:31:35.240Z,3.83
2018-02-14T00:34:02.700Z,3.80
2018-02-14T00:36:30.179Z,3.10
2018-02-14T00:38:57.621Z,3.93
2018-02-14T00:41:25.080Z,3.63
2018-02-14T00:43:52.540Z,3.57
2018-02-14T00:46:20.082Z,4.40
2018-02-14T00:48:47.545Z,3.30
2018-02-14T00:51:15.020Z,3.40
2018-02-14T00:53:42.567Z,3.20
2018-02-14T00:56:10.032Z,3.80
2018-02-14T00:58:37.502Z,3.73
2018-02-14T01:01:05.310Z,3.17
2018-02-14T01:03:32.756Z,3.87
2018-02-14T01:06:00.228Z,3.80
2018-02-14T01:08:27.688Z,3.70
2018-02-14T01:10:55.165Z,4.23
2018-02-14T01:13:22.643Z,3.73
2018-02-14T01:15:50.165Z,3.90
2018-02-14T01:18:17.637Z,3.37
2018-02-14T01:20:45.112Z,3.13
2018-02-14T01:23:12.579Z,3.33
2018-02-14T01:25:40.804Z,3.43
2018-02-14T01:28:08.278Z,3.40
2018-02-14T01:30:35.744Z,3.83
2018-02-14T01:33:03.212Z,4.37
2018-02-14T01:35:30.669Z,3.60
2018-02-14T01:37:58.262Z,3.23
2018-02-14T01:40:26.488Z,3.90
2018-02-14T01:42:53.992Z,3.57
2018-02-14T01:45:22.224Z,4.20
2018-02-14T01:47:49.704Z,4.30
2018-02-14T01:50:17.189Z,3.77
2018-02-14T01:52:45.481Z,4.20
2018-02-14T01:55:12.960Z,4.30
2018-02-14T01:57:40.432Z,3.90
2018-02-14T02:00:07.884Z,4.33
2018-02-14T02:02:35.490Z,4.13
2018-02-14T02:05:03.759Z,4.50
2018-02-14T02:07:32.020Z,4.63
2018-02-14T02:09:59.538Z,4.20
2018-02-14T02:12:26.983Z,3.60
2018-02-14T02:14:54.440Z,3.87
2018-02-14T02:17:22.560Z,3.73
2018-02-14T02:19:50.028Z,3.97
2018-02-14T02:22:18.256Z,4.10
2018-02-14T02:24:45.736Z,4.40
2018-02-14T02:27:13.193Z,4.80
2018-02-14T02:29:40.668Z,3.47
2018-02-14T02:32:08.133Z,4.90
2018-02-14T02:34:36.389Z,4.53
2018-02-14T02:37:03.848Z,4.40
2018-02-14T02:39:43.261Z,4.80
2018-02-14T02:42:11.229Z,4.30
2018-02-14T02:44:38.681Z,4.17
2018-02-14T02:47:06.153Z,4.80
2018-02-14T02:49:33.622Z,5.23
2018-02-14T02:52:01.097Z,4.80
2018-02-14T02:54:29.337Z,5.10
2018-02-14T02:56:56.799Z,5.37
2018-02-14T02:59:24.277Z,4.87
2018-02-14T03:01:51.749Z,4.80
2018-02-14T03:04:19.980Z,4.80
2018-02-14T03:06:47.568Z,4.87
2018-02-14T03:09:15.018Z,4.43
2018-02-14T03:11:42.485Z,4.90
2018-02-14T03:14:09.939Z,4.80
2018-02-14T03:16:37.416Z,4.40
2018-02-14T03:19:05.646Z,4.90
2018-02-14T03:21:33.239Z,4.80
2018-02-14T03:24:01.466Z,4.57
2018-02-14T03:26:28.932Z,4.50
2018-02-14T03:29:01.401Z,4.87
2018-02-14T03:31:28.868Z,4.80
2018-02-14T03:33:56.337Z,4.43
2018-02-14T03:36:23.809Z,4.20
2018-02-14T03:38:51.268Z,4.30
2018-02-14T03:41:19.525Z,5.30
2018-02-14T03:43:47.592Z,5.40
2018-02-14T03:46:15.156Z,4.77
2018-02-14T03:48:42.692Z,5.57
2018-02-14T03:51:10.162Z,4.67
2018-02-14T03:53:37.793Z,4.80
2018-02-14T03:56:05.261Z,4.73
2018-02-14T03:58:32.737Z,5.20
2018-02-14T04:01:00.197Z,5.20
2018-02-14T04:03:27.672Z,5.13
2018-02-14T04:05:55.133Z,5.17
2018-02-14T04:08:22.623Z,4.93
2018-02-14T04:10:50.081Z,4.53
2018-02-14T04:13:17.550Z,4.63
2018-02-14T04:15:45.026Z,4.30
2018-02-14T04:18:12.525Z,5.70
2018-02-14T04:20:40.765Z,5.53
2018-02-14T04:23:08.236Z,4.90
2018-02-14T04:25:35.697Z,5.17
2018-02-14T04:28:03.299Z,5.90
2018-02-14T04:30:30.984Z,5.13
2018-02-14T04:32:58.452Z,5.23
2018-02-14T04:35:25.978Z,5.93
2018-02-14T04:37:53.451Z,5.50
2018-02-14T04:40:20.932Z,4.37
2018-02-14T04:42:48.384Z,5.40
2018-02-14T04:45:15.867Z,5.30
2018-02-14T04:47:43.329Z,5.10
2018-02-14T04:50:10.791Z,4.93
2018-02-14T04:52:39.020Z,4.77
2018-02-14T04:55:06.600Z,4.90
2018-02-14T04:57:34.049Z,4.70
2018-02-14T05:00:01.538Z,4.80
2018-02-14T05:02:29.758Z,5.63
2018-02-14T05:04:57.224Z,4.87
2018-02-14T05:07:24.741Z,5.63
2018-02-14T05:09:52.987Z,4.93
2018-02-14T05:12:21.180Z,5.50
2018-02-14T05:14:49.561Z,5.73
2018-02-14T05:17:17.804Z,5.80
2018-02-14T05:19:45.433Z,5.57
2018-02-14T05:22:12.921Z,5.70
2018-02-14T05:24:40.400Z,5.33
2018-02-14T05:27:07.873Z,5.47
2018-02-14T05:29:36.201Z,6.03
2018-02-14T05:32:03.677Z,5.20
2018-02-14T05:34:31.199Z,5.40
2018-02-14T05:36:58.810Z,6.53
2018-02-14T05:39:26.468Z,5.90
2018-02-14T05:41:54.708Z,5.60
2018-02-14T05:44:22.298Z,5.77
2018-02-14T05:46:49.799Z,5.40
2018-02-14T05:49:17.270Z,6.00
2018-02-14T05:51:44.741Z,5.77
2018-02-14T05:54:12.221Z,5.73
2018-02-14T05:56:39.682Z,5.80
2018-02-14T05:59:07.149Z,6.10
2018-02-14T06:01:34.649Z,5.67
2018-02-14T06:04:02.124Z,5.90
2018-02-14T06:06:29.595Z,6.53
2018-02-14T06:08:57.080Z,6.10
2018-02-14T06:11:24.540Z,5.80
2018-02-14T06:13:52.059Z,5.70
2018-02-14T06:16:19.517Z,6.20
2018-02-14T06:18:47.001Z,6.40
2018-02-14T06:21:14.461Z,5.20
2018-02-14T06:23:42.109Z,6.03
2018-02-14T06:26:09.601Z,5.40
2018-02-14T06:28:37.840Z,6.20
2018-02-14T06:31:05.310Z,6.53
2018-02-14T06:33:32.803Z,6.67
2018-02-14T06:36:00.267Z,6.73
2018-02-14T06:38:27.821Z,7.40
2018-02-14T06:40:55.282Z,7.13
2018-02-14T06:43:22.957Z,6.90
2018-02-14T06:45:50.424Z,7.87
2018-02-14T06:48:17.888Z,7.47
2018-02-14T06:50:45.356Z,7.10
2018-02-14T06:53:12.898Z,6.83
2018-02-14T06:55:40.371Z,6.90
2018-02-14T06:58:07.833Z,7.17
2018-02-14T07:00:35.325Z,6.97
2018-02-14T07:03:03.574Z,7.40
2018-02-14T07:05:31.112Z,6.40
2018-02-14T07:07:58.603Z,6.70
2018-02-14T07:10:26.084Z,7.47
2018-02-14T07:12:53.605Z,6.87
2018-02-14T07:15:21.224Z,8.50
2018-02-14T07:17:48.698Z,7.50
2018-02-14T07:20:16.251Z,8.33
2018-02-14T07:22:43.739Z,7.80
2018-02-14T07:25:11.216Z,7.80
2018-02-14T07:27:39.546Z,7.33
2018-02-14T07:30:07.163Z,8.17
2018-02-14T07:32:35.404Z,7.83
2018-02-14T07:35:02.872Z,8.47
2018-02-14T07:37:31.865Z,7.43
2018-02-14T07:39:59.576Z,8.20
2018-02-14T07:42:27.075Z,8.43
2018-02-14T07:44:54.696Z,8.47
2018-02-14T07:47:22.396Z,8.37
2018-02-14T07:49:49.890Z,7.23
2018-02-14T07:52:18.118Z,7.97
2018-02-14T07:54:45.687Z,8.00
2018-02-14T07:57:13.151Z,9.17
2018-02-14T07:59:40.629Z,8.10
2018-02-14T08:02:08.857Z,8.80
2018-02-14T08:04:36.384Z,8.33
2018-02-14T08:07:03.897Z,8.20
2018-02-14T08:09:31.358Z,9.90
2018-02-14T08:11:58.827Z,9.30
2018-02-14T08:14:27.073Z,9.00
2018-02-14T08:16:54.573Z,9.03
2018-02-14T08:19:22.021Z,9.83
2018-02-14T08:21:49.517Z,9.03
2018-02-14T08:24:16.983Z,10.07
2018-02-14T08:26:44.444Z,9.07
2018-02-14T08:29:12.031Z,8.90
2018-02-14T08:31:39.492Z,9.20
2018-02-14T08:34:07.724Z,8.80
2018-02-14T08:36:35.181Z,9.07
2018-02-14T08:39:02.693Z,9.00
2018-02-14T08:41:30.164Z,9.20
2018-02-14T08:43:58.578Z,9.13
2018-02-14T08:46:26.773Z,9.10
2018-02-14T08:48:54.233Z,8.93
2018-02-14T08:51:21.700Z,9.50
2018-02-14T08:53:49.173Z,9.90
2018-02-14T08:56:17.417Z,9.50
2018-02-14T08:58:44.884Z,8.73
2018-02-14T09:01:12.357Z,9.00
2018-02-14T09:03:39.825Z,9.50
2018-02-14T09:06:08.077Z,8.30
2018-02-14T09:08:35.558Z,10.07
2018-02-14T09:11:03.873Z,9.67
2018-02-14T09:13:31.340Z,8.90
2018-02-14T09:15:58.810Z,9.03
2018-02-14T09:18:26.285Z,9.03
2018-02-14T09:20:53.736Z,9.30
2018-02-14T09:23:21.377Z,8.73
2018-02-14T09:25:48.949Z,9.00
2018-02-14T09:28:16.440Z,8.60
2018-02-14T09:30:44.749Z,10.03
2018-02-14T09:33:12.221Z,9.73
2018-02-14T09:35:39.704Z,10.00
2018-02-14T09:38:07.941Z,9.20
2018-02-14T09:40:35.424Z,9.60
2018-02-14T09:43:02.917Z,9.50
2018-02-14T09:45:30.572Z,10.27
2018-02-14T09:47:58.813Z,10.60
2018-02-14T09:50:26.296Z,11.10
2018-02-14T09:52:53.844Z,9.90
2018-02-14T09:55:21.324Z,10.10
2018-02-14T09:57:48.827Z,10.23
2018-02-14T10:00:16.344Z,8.97
2018-02-14T10:02:43.809Z,10.57
2018-02-14T10:05:12.048Z,10.07
2018-02-14T10:07:39.530Z,9.80
2018-02-14T10:10:07.757Z,9.33
2018-02-14T10:12:35.330Z,9.53
2018-02-14T10:15:02.801Z,8.80
2018-02-14T10:17:30.398Z,10.63
2018-02-14T10:19:58.743Z,9.50
2018-02-14T10:22:26.360Z,9.37
2018-02-14T10:24:53.882Z,9.03
2018-02-14T10:27:22.123Z,10.30
2018-02-14T10:29:49.588Z,9.70
2018-02-14T10:32:17.835Z,9.17
2018-02-14T10:34:45.305Z,9.43
2018-02-14T10:37:12.838Z,9.47
2018-02-14T10:39:40.445Z,8.73
2018-02-14T10:42:08.217Z,9.77
2018-02-14T10:44:35.728Z,9.87
2018-02-14T10:47:03.435Z,9.20
2018-02-14T10:49:30.959Z,9.10
2018-02-14T10:51:58.432Z,8.80
2018-02-14T10:54:25.933Z,10.10
2018-02-14T10:56:53.425Z,9.07
2018-02-14T10:59:20.909Z,10.07
2018-02-14T11:01:54.777Z,9.73
2018-02-14T11:04:22.294Z,10.03
2018-02-14T11:06:49.827Z,9.10
2018-02-14T11:09:17.393Z,8.50
2018-02-14T11:11:44.866Z,9.40
2018-02-14T11:14:13.099Z,8.60
2018-02-14T11:16:40.560Z,9.10
2018-02-14T11:19:08.033Z,8.40
2018-02-14T11:21:35.497Z,9.27
2018-02-14T11:24:02.968Z,8.80
2018-02-14T11:29:04.352Z,8.90
2018-02-14T11:31:32.596Z,7.37
2018-02-14T11:34:00.061Z,7.03
2018-02-14T11:36:27.714Z,6.50
2018-02-14T11:38:55.236Z,8.03
2018-02-14T11:41:22.728Z,7.30
2018-02-14T11:43:50.192Z,6.67
2018-02-14T11:46:17.676Z,6.27
2018-02-14T11:48:45.149Z,6.20
2018-02-14T11:51:12.621Z,6.47
2018-02-14T11:53:40.082Z,6.70
2018-02-14T11:56:07.694Z,6.40
2018-02-14T11:58:35.933Z,5.63
2018-02-14T12:01:03.505Z,5.70
2018-02-14T12:03:30.972Z,5.60
2018-02-14T12:05:58.440Z,5.63
2018-02-14T12:08:26.684Z,5.70
2018-02-14T12:10:54.164Z,5.80
2018-02-14T12:13:21.621Z,6.40
2018-02-14T12:15:49.181Z,5.30
2018-02-14T12:18:17.405Z,4.57
2018-02-14T12:20:44.865Z,5.73
2018-02-14T12:23:12.329Z,5.00
2018-02-14T12:25:39.791Z,5.77
2018-02-14T12:28:07.255Z,5.93
2018-02-14T12:30:34.714Z,5.47
2018-02-14T12:33:02.184Z,5.47
2018-02-14T12:35:29.646Z,6.17
2018-02-14T12:37:57.113Z,5.00
2018-02-14T12:40:25.393Z,5.37
2018-02-14T12:42:52.864Z,5.03
2018-02-14T12:45:21.094Z,5.40
2018-02-14T12:47:48.566Z,5.30
2018-02-14T12:50:16.021Z,5.00
2018-02-14T12:52:43.480Z,5.80
2018-02-14T12:55:10.957Z,5.40
2018-02-14T12:57:38.424Z,5.17
2018-02-14T13:00:06.765Z,4.60
2018-02-14T13:02:34.233Z,5.20
2018-02-14T13:05:01.780Z,4.90
2018-02-14T13:07:29.232Z,5.43
2018-02-14T13:09:56.705Z,5.13
2018-02-14T13:12:24.165Z,4.43
2018-02-14T13:14:51.638Z,4.40
2018-02-14T13:17:20.003Z,5.10
2018-02-14T13:19:47.517Z,5.17
2018-02-14T13:22:15.000Z,5.33
2018-02-14T13:24:42.474Z,5.07
2018-02-14T13:27:10.061Z,5.13
2018-02-14T13:29:37.543Z,4.93
2018-02-14T13:32:05.197Z,5.17
2018-02-14T13:34:32.658Z,5.73
2018-02-14T13:37:00.132Z,5.27
2018-02-14T13:39:27.593Z,5.50
2018-02-14T13:41:55.064Z,4.77
2018-02-14T13:44:22.539Z,5.43
2018-02-14T13:46:50.008Z,5.40
2018-02-14T13:49:18.253Z,5.90
2018-02-14T13:51:45.716Z,5.40
2018-02-14T13:54:13.182Z,6.20
2018-02-14T13:56:40.642Z,6.03
2018-02-14T13:59:08.889Z,5.57
2018-02-14T14:01:36.840Z,5.37
2018-02-14T14:04:04.307Z,6.23
2018-02-14T14:06:31.788Z,5.20
2018-02-14T14:08:59.244Z,5.90
2018-02-14T14:11:27.478Z,6.13
2018-02-14T14:13:54.956Z,5.80
2018-02-14T14:16:22.628Z,6.50
2018-02-14T14:18:50.090Z,5.67
2018-02-14T14:21:17.591Z,6.10
2018-02-14T14:23:45.811Z,7.07
2018-02-14T14:26:13.279Z,5.80
2018-02-14T14:28:40.741Z,5.73
2018-02-14T14:31:08.188Z,5.97
2018-02-14T14:33:35.665Z,6.37
2018-02-14T14:36:03.150Z,6.27
2018-02-14T14:38:30.617Z,5.20
2018-02-14T14:40:58.206Z,5.60
2018-02-14T14:43:25.683Z,6.20
2018-02-14T14:45:53.139Z,5.33
2018-02-14T14:48:20.613Z,5.90
2018-02-14T14:50:48.856Z,5.80
2018-02-14T14:53:16.328Z,5.50
2018-02-14T14:55:43.871Z,5.33
2018-02-14T14:58:11.340Z,6.00
2018-02-14T15:00:38.804Z,5.83
2018-02-14T15:03:06.329Z,5.20
2018-02-14T15:05:34.081Z,5.20
2018-02-14T15:08:01.548Z,5.20
2018-02-14T15:10:29.044Z,4.23
2018-02-14T15:12:56.521Z,5.07
2018-02-14T15:15:24.754Z,4.80
2018-02-14T15:17:52.212Z,4.50
2018-02-14T15:20:19.705Z,4.77
2018-02-14T15:22:48.168Z,5.43
2018-02-14T15:25:15.692Z,5.17
2018-02-14T15:27:43.440Z,4.33
2018-02-14T15:30:10.956Z,4.90
2018-02-14T15:32:38.496Z,5.53
2018-02-14T15:35:05.977Z,4.30
2018-02-14T15:37:33.435Z,4.80
2018-02-14T16:35:48.295Z,4.30
2018-02-14T16:38:17.139Z,4.10
2018-02-14T16:40:44.615Z,4.37
2018-02-14T16:43:12.121Z,3.90
2018-02-14T16:45:39.614Z,4.07
2018-02-14T16:48:07.086Z,3.93
2018-02-14T16:50:34.557Z,3.70
2018-02-14T16:53:02.017Z,3.50
2018-02-14T16:55:29.480Z,4.00
2018-02-14T16:57:57.716Z,4.43
2018-02-14T17:00:25.243Z,4.67
2018-02-14T17:02:52.695Z,4.90
2018-02-14T17:05:20.296Z,4.50
2018-02-14T17:07:47.764Z,4.80
2018-02-14T17:10:15.304Z,5.00
2018-02-14T17:12:42.789Z,4.40
2018-02-14T17:15:10.241Z,4.80
2018-02-14T17:17:37.717Z,5.03
2018-02-14T17:20:06.141Z,5.27
2018-02-14T17:22:33.669Z,5.57
2018-02-14T17:25:01.973Z,5.30
2018-02-14T17:27:29.459Z,6.03
2018-02-14T17:29:56.909Z,6.47
2018-02-14T17:32:24.376Z,6.20
2018-02-14T17:34:51.840Z,5.40
2018-02-14T17:37:19.320Z,5.60
2018-02-14T17:39:47.557Z,5.07
2018-02-14T17:42:15.020Z,5.70
2018-02-14T17:44:42.529Z,6.20
2018-02-14T17:47:10.746Z,5.40
2018-02-14T17:49:38.241Z,5.83
2018-02-14T17:52:06.489Z,6.40
2018-02-14T17:54:33.957Z,5.50
2018-02-14T17:57:02.043Z,6.07
2018-02-14T17:59:30.400Z,5.27
2018-02-14T18:01:57.981Z,6.10
2018-02-14T18:04:26.234Z,5.57
2018-02-14T18:06:53.697Z,6.97
2018-02-14T18:09:27.141Z,6.53
2018-02-14T18:11:54.613Z,7.63
2018-02-14T18:14:22.114Z,6.77
2018-02-14T18:16:49.565Z,8.03
2018-02-14T18:19:17.173Z,14.10
2018-02-14T18:21:44.634Z,7.07
2018-02-14T18:24:12.232Z,8.70
2018-02-14T18:26:40.482Z,6.13
2018-02-14T18:29:07.952Z,8.67
2018-02-14T18:31:35.443Z,7.87
2018-02-14T18:34:02.900Z,8.30
2018-02-14T18:36:31.140Z,6.87
2018-02-14T18:38:58.780Z,6.00
2018-02-14T18:41:26.261Z,7.30
2018-02-14T18:43:53.745Z,6.97
2018-02-14T18:46:21.209Z,6.30
2018-02-14T18:48:49.433Z,6.03
2018-02-14T18:51:16.906Z,6.10
2018-02-14T18:56:18.412Z,6.20
2018-02-14T18:58:46.649Z,5.93
2018-02-14T19:01:14.124Z,6.27
2018-02-14T19:03:41.607Z,5.53
2018-02-14T19:06:09.585Z,7.10
2018-02-14T19:08:37.815Z,5.93
2018-02-14T19:11:05.273Z,7.10
2018-02-14T19:13:32.766Z,7.13
2018-02-14T19:16:00.996Z,7.37
2018-02-14T19:18:28.470Z,7.13
2018-02-14T19:20:55.936Z,7.10
2018-02-14T19:23:23.409Z,6.63
2018-02-14T19:25:51.638Z,7.63
2018-02-14T19:28:19.113Z,7.53
2018-02-14T19:30:46.726Z,6.73
2018-02-14T19:33:14.221Z,6.60
2018-02-14T19:35:41.681Z,7.37
2018-02-14T19:38:09.133Z,6.10
2018-02-14T19:40:36.620Z,7.40
2018-02-14T19:43:04.968Z,6.67
2018-02-14T19:45:32.440Z,6.80
2018-02-14T19:47:59.918Z,8.87
2018-02-14T19:50:28.157Z,9.40
2018-02-14T19:52:55.633Z,9.30
2018-02-14T19:55:23.150Z,8.30
2018-02-14T19:57:51.349Z,8.80
2018-02-14T20:00:18.844Z,9.40
2018-02-14T20:02:47.162Z,11.60
2018-02-14T20:05:14.650Z,9.33
2018-02-14T20:07:42.114Z,9.10
2018-02-14T20:10:09.596Z,7.83
2018-02-14T20:12:37.937Z,7.70
2018-02-14T20:15:05.506Z,7.73
2018-02-14T20:17:32.977Z,7.20
2018-02-14T20:20:01.218Z,7.37
2018-02-14T20:22:28.694Z,8.60
2018-02-14T20:24:59.612Z,7.50
2018-02-14T20:27:27.770Z,7.30
2018-02-14T20:29:55.269Z,7.80
2018-02-14T20:32:22.804Z,6.90
2018-02-14T20:34:50.258Z,7.20
2018-02-14T20:37:17.885Z,7.80
2018-02-14T20:39:45.374Z,7.20
2018-02-14T20:42:12.900Z,7.00
2018-02-14T20:44:40.365Z,7.50
2018-02-14T20:47:07.840Z,7.83
2018-02-14T20:49:35.389Z,7.50
2018-02-14T20:54:36.679Z,8.40
2018-02-14T20:57:04.152Z,7.80
2018-02-14T21:27:37.149Z,9.80
2018-02-14T21:59:11.345Z,9.43
2018-02-14T22:01:38.823Z,11.40
2018-02-14T22:04:06.317Z,9.17
2018-02-14T22:06:33.971Z,9.23
2018-02-14T22:09:01.445Z,9.10
2018-02-14T22:11:29.701Z,10.23
2018-02-14T22:13:57.288Z,9.30
2018-02-14T22:16:25.588Z,9.63
2018-02-14T22:18:53.211Z,10.70
2018-02-14T22:21:21.519Z,10.10
2018-02-14T22:23:48.985Z,9.73
2018-02-14T22:26:16.562Z,9.50
2018-02-14T22:28:44.061Z,10.27
2018-02-14T22:31:11.521Z,8.90
2018-02-14T22:33:39.753Z,9.40
2018-02-14T22:36:07.291Z,10.00
2018-02-14T22:38:34.773Z,10.23
2018-02-14T22:41:02.246Z,9.90
2018-02-14T22:43:29.725Z,9.43
2018-02-14T22:45:57.960Z,10.00
2018-02-14T22:48:25.451Z,10.67
2018-02-14T22:50:52.906Z,9.57
2018-02-14T22:53:20.567Z,12.00
2018-02-14T22:55:48.040Z,9.80
2018-02-14T22:58:16.276Z,9.87
2018-02-14T23:00:44.378Z,10.20
2018-02-14T23:03:12.638Z,10.47
2018-02-14T23:05:40.101Z,10.27
2018-02-14T23:08:07.693Z,10.97
2018-02-14T23:10:35.181Z,11.60
2018-02-14T23:13:02.737Z,9.87
2018-02-14T23:15:30.226Z,11.50
2018-02-14T23:17:57.686Z,11.17
2018-02-14T23:20:25.161Z,11.90
2018-02-14T23:22:53.428Z,10.83
2018-02-14T23:25:21.664Z,9.93
2018-02-14T23:27:49.141Z,12.37
2018-02-14T23:30:16.608Z,11.37
2018-02-14T23:32:44.085Z,10.70
2018-02-14T23:35:12.341Z,10.47
2018-02-14T23:37:39.820Z,11.20
2018-02-14T23:40:08.053Z,11.93
2018-02-14T23:42:35.545Z,10.87
2018-02-14T23:45:04.518Z,10.37
2018-02-14T23:47:32.000Z,10.10
2018-02-14T23:50:00.249Z,11.27
2018-02-14T23:52:27.718Z,10.50
2018-02-14T23:54:55.953Z,11.60
2018-02-14T23:57:23.432Z,11.03
2018-02-14T23:59:50.914Z,11.20
